sensor_id;sensor_type;location;lat;lon;timestamp;P1;durP1;ratioP1;P2;durP2;ratioP2
12373;SDS011;6251;51.762;8.660;2023-05-10T01:06:31;15.70;;;13.62;;
12373;SDS011;6251;51.762;8.660;2023-05-10T02:48:05;14.98;;;9.90;;
12373;SDS011;6251;51.762;8.660;2023-05-10T02:58:06;12.20;;;8.70;;
12373;SDS011;6251;51.762;8.660;2023-05-10T04:09:09;8.00;;;5.87;;
12373;SDS011;6251;51.762;8.660;2023-05-10T04:19:09;7.35;;;6.60;;
12373;SDS011;6251;51.762;8.660;2023-05-10T04:29:10;7.90;;;6.35;;
12373;SDS011;6251;51.762;8.660;2023-05-10T04:39:11;6.90;;;5.80;;
12373;SDS011;6251;51.762;8.660;2023-05-10T04:49:12;4.40;;;4.00;;
12373;SDS011;6251;51.762;8.660;2023-05-10T04:59:14;4.00;;;3.65;;
12373;SDS011;6251;51.762;8.660;2023-05-10T05:09:14;7.03;;;4.10;;
12373;SDS011;6251;51.762;8.660;2023-05-10T05:19:15;4.62;;;4.22;;
12373;SDS011;6251;51.762;8.660;2023-05-10T05:29:15;7.82;;;5.47;;
12373;SDS011;6251;51.762;8.660;2023-05-10T05:39:16;9.20;;;6.12;;
12373;SDS011;6251;51.762;8.660;2023-05-10T05:49:17;5.37;;;4.55;;
12373;SDS011;6251;51.762;8.660;2023-05-10T05:59:17;8.02;;;5.28;;
12373;SDS011;6251;51.762;8.660;2023-05-10T06:09:18;5.72;;;3.70;;
12373;SDS011;6251;51.762;8.660;2023-05-10T06:19:18;6.97;;;4.12;;
12373;SDS011;6251;51.762;8.660;2023-05-10T06:29:19;5.10;;;3.40;;
12373;SDS011;6251;51.762;8.660;2023-05-10T06:39:19;5.18;;;3.50;;
12373;SDS011;6251;51.762;8.660;2023-05-10T06:59:39;5.95;;;5.20;;
12373;SDS011;6251;51.762;8.660;2023-05-10T07:09:40;10.35;;;7.18;;
12373;SDS011;6251;51.762;8.660;2023-05-10T07:19:41;12.27;;;7.45;;
12373;SDS011;6251;51.762;8.660;2023-05-10T07:29:41;8.57;;;6.18;;
12373;SDS011;6251;51.762;8.660;2023-05-10T07:39:42;12.20;;;7.97;;
12373;SDS011;6251;51.762;8.660;2023-05-10T07:49:42;13.80;;;8.20;;
12373;SDS011;6251;51.762;8.660;2023-05-10T07:59:43;13.02;;;8.20;;
12373;SDS011;6251;51.762;8.660;2023-05-10T08:09:45;13.18;;;8.32;;
12373;SDS011;6251;51.762;8.660;2023-05-10T08:19:45;13.95;;;7.97;;
12373;SDS011;6251;51.762;8.660;2023-05-10T08:29:46;19.48;;;11.75;;
12373;SDS011;6251;51.762;8.660;2023-05-10T08:39:46;33.60;;;16.35;;
12373;SDS011;6251;51.762;8.660;2023-05-10T08:49:47;29.50;;;15.50;;
12373;SDS011;6251;51.762;8.660;2023-05-10T08:59:51;35.13;;;27.37;;
12373;SDS011;6251;51.762;8.660;2023-05-10T09:09:51;56.70;;;49.13;;
12373;SDS011;6251;51.762;8.660;2023-05-10T09:19:59;40.90;;;20.23;;
12373;SDS011;6251;51.762;8.660;2023-05-10T09:30:01;30.42;;;17.42;;
12373;SDS011;6251;51.762;8.660;2023-05-10T09:40:04;33.30;;;19.27;;
12373;SDS011;6251;51.762;8.660;2023-05-10T09:50:06;33.53;;;18.37;;
12373;SDS011;6251;51.762;8.660;2023-05-10T10:00:07;32.50;;;19.33;;
12373;SDS011;6251;51.762;8.660;2023-05-10T10:10:10;31.87;;;19.58;;
12373;SDS011;6251;51.762;8.660;2023-05-10T10:20:12;27.08;;;16.98;;
12373;SDS011;6251;51.762;8.660;2023-05-10T10:30:15;21.90;;;14.52;;
12373;SDS011;6251;51.762;8.660;2023-05-10T10:40:36;25.27;;;16.75;;
12373;SDS011;6251;51.762;8.660;2023-05-10T10:50:44;21.33;;;14.63;;
12373;SDS011;6251;51.762;8.660;2023-05-10T11:00:46;22.35;;;15.48;;
12373;SDS011;6251;51.762;8.660;2023-05-10T11:10:50;16.27;;;12.30;;
12373;SDS011;6251;51.762;8.660;2023-05-10T11:21:02;13.68;;;10.32;;
12373;SDS011;6251;51.762;8.660;2023-05-10T11:31:04;18.40;;;13.48;;
12373;SDS011;6251;51.762;8.660;2023-05-10T11:41:05;20.87;;;14.83;;
12373;SDS011;6251;51.762;8.660;2023-05-10T11:51:10;15.40;;;11.55;;
12373;SDS011;6251;51.762;8.660;2023-05-10T12:01:11;13.77;;;10.77;;
12373;SDS011;6251;51.762;8.660;2023-05-10T12:11:12;9.65;;;7.50;;
12373;SDS011;6251;51.762;8.660;2023-05-10T12:21:17;5.03;;;3.95;;
12373;SDS011;6251;51.762;8.660;2023-05-10T12:31:19;4.15;;;3.72;;
12373;SDS011;6251;51.762;8.660;2023-05-10T12:41:20;4.00;;;3.55;;
12373;SDS011;6251;51.762;8.660;2023-05-10T12:51:21;4.85;;;4.40;;
12373;SDS011;6251;51.762;8.660;2023-05-10T13:01:22;5.68;;;4.87;;
12373;SDS011;6251;51.762;8.660;2023-05-10T13:11:23;10.30;;;7.20;;
12373;SDS011;6251;51.762;8.660;2023-05-10T13:21:23;13.60;;;9.85;;
12373;SDS011;6251;51.762;8.660;2023-05-10T13:31:25;10.63;;;8.65;;
12373;SDS011;6251;51.762;8.660;2023-05-10T13:41:25;19.02;;;11.68;;
12373;SDS011;6251;51.762;8.660;2023-05-10T13:51:26;10.30;;;6.80;;
12373;SDS011;6251;51.762;8.660;2023-05-10T14:01:26;22.98;;;13.80;;
12373;SDS011;6251;51.762;8.660;2023-05-10T14:11:27;26.43;;;13.33;;
12373;SDS011;6251;51.762;8.660;2023-05-10T14:21:28;18.12;;;11.50;;
12373;SDS011;6251;51.762;8.660;2023-05-10T14:31:31;20.42;;;11.90;;
12373;SDS011;6251;51.762;8.660;2023-05-10T14:41:32;25.42;;;12.48;;
12373;SDS011;6251;51.762;8.660;2023-05-10T14:51:32;12.20;;;8.10;;
12373;SDS011;6251;51.762;8.660;2023-05-10T15:01:33;18.58;;;9.55;;
12373;SDS011;6251;51.762;8.660;2023-05-10T15:11:37;14.35;;;8.80;;
12373;SDS011;6251;51.762;8.660;2023-05-10T15:21:37;24.83;;;12.30;;
12373;SDS011;6251;51.762;8.660;2023-05-10T15:31:38;19.58;;;10.82;;
12373;SDS011;6251;51.762;8.660;2023-05-10T15:41:39;20.73;;;12.43;;
12373;SDS011;6251;51.762;8.660;2023-05-10T15:51:40;23.40;;;14.05;;
12373;SDS011;6251;51.762;8.660;2023-05-10T16:01:41;21.10;;;11.75;;
12373;SDS011;6251;51.762;8.660;2023-05-10T16:11:42;21.23;;;12.63;;
12373;SDS011;6251;51.762;8.660;2023-05-10T16:21:43;25.80;;;13.90;;
12373;SDS011;6251;51.762;8.660;2023-05-10T16:31:43;27.65;;;16.90;;
12373;SDS011;6251;51.762;8.660;2023-05-10T16:41:45;27.13;;;15.30;;
12373;SDS011;6251;51.762;8.660;2023-05-10T16:51:45;27.48;;;14.45;;
12373;SDS011;6251;51.762;8.660;2023-05-10T17:01:46;16.87;;;11.18;;
12373;SDS011;6251;51.762;8.660;2023-05-10T17:11:47;16.70;;;9.65;;
12373;SDS011;6251;51.762;8.660;2023-05-10T17:21:47;17.12;;;10.98;;
12373;SDS011;6251;51.762;8.660;2023-05-10T17:31:48;17.80;;;10.10;;
12373;SDS011;6251;51.762;8.660;2023-05-10T17:41:49;17.07;;;10.73;;
12373;SDS011;6251;51.762;8.660;2023-05-10T17:51:49;24.80;;;13.20;;
12373;SDS011;6251;51.762;8.660;2023-05-10T18:01:50;22.17;;;12.63;;
12373;SDS011;6251;51.762;8.660;2023-05-10T18:11:50;17.25;;;10.98;;
12373;SDS011;6251;51.762;8.660;2023-05-10T18:21:51;19.12;;;10.88;;
12373;SDS011;6251;51.762;8.660;2023-05-10T18:31:51;23.52;;;11.93;;
12373;SDS011;6251;51.762;8.660;2023-05-10T18:41:52;20.40;;;12.47;;
12373;SDS011;6251;51.762;8.660;2023-05-10T18:51:53;26.90;;;14.15;;
12373;SDS011;6251;51.762;8.660;2023-05-10T19:01:53;22.10;;;13.52;;
12373;SDS011;6251;51.762;8.660;2023-05-10T19:11:54;15.98;;;11.18;;
12373;SDS011;6251;51.762;8.660;2023-05-10T19:21:55;19.20;;;11.90;;
12373;SDS011;6251;51.762;8.660;2023-05-10T19:31:56;20.90;;;11.38;;
12373;SDS011;6251;51.762;8.660;2023-05-10T19:41:57;16.23;;;11.02;;
12373;SDS011;6251;51.762;8.660;2023-05-10T19:51:58;20.75;;;13.05;;
12373;SDS011;6251;51.762;8.660;2023-05-10T20:02:00;19.10;;;12.90;;
12373;SDS011;6251;51.762;8.660;2023-05-10T20:12:01;19.65;;;10.60;;
12373;SDS011;6251;51.762;8.660;2023-05-10T20:22:01;18.25;;;11.57;;
12373;SDS011;6251;51.762;8.660;2023-05-10T20:32:05;20.25;;;12.43;;
12373;SDS011;6251;51.762;8.660;2023-05-10T20:42:05;32.55;;;15.02;;
12373;SDS011;6251;51.762;8.660;2023-05-10T20:52:06;33.50;;;16.48;;
12373;SDS011;6251;51.762;8.660;2023-05-10T23:04:11;26.85;;;16.00;;
12373;SDS011;6251;51.762;8.660;2023-05-10T23:14:12;33.45;;;16.17;;
